sensor_id;sensor_type;location;lat;lon;timestamp;P1;durP1;ratioP1;P2;durP2;ratioP2
25123;SDS011;13104;51.030;4.686;2023-05-24T00:00:49;15.15;;;3.90;;
25123;SDS011;13104;51.030;4.686;2023-05-24T00:03:17;12.40;;;4.00;;
25123;SDS011;13104;51.030;4.686;2023-05-24T00:05:43;16.38;;;3.70;;
25123;SDS011;13104;51.030;4.686;2023-05-24T00:08:10;15.27;;;3.88;;
25123;SDS011;13104;51.030;4.686;2023-05-24T00:10:37;14.98;;;3.78;;
25123;SDS011;13104;51.030;4.686;2023-05-24T00:13:03;12.43;;;3.55;;
25123;SDS011;13104;51.030;4.686;2023-05-24T00:15:30;19.38;;;4.35;;
25123;SDS011;13104;51.030;4.686;2023-05-24T00:17:56;14.85;;;3.70;;
25123;SDS011;13104;51.030;4.686;2023-05-24T00:20:22;19.15;;;3.90;;
25123;SDS011;13104;51.030;4.686;2023-05-24T00:22:48;14.88;;;3.90;;
25123;SDS011;13104;51.030;4.686;2023-05-24T00:25:15;19.67;;;4.15;;
25123;SDS011;13104;51.030;4.686;2023-05-24T00:27:41;14.38;;;3.60;;
25123;SDS011;13104;51.030;4.686;2023-05-24T00:30:08;19.50;;;4.55;;
25123;SDS011;13104;51.030;4.686;2023-05-24T00:32:34;18.10;;;4.50;;
25123;SDS011;13104;51.030;4.686;2023-05-24T00:35:00;16.45;;;4.35;;
25123;SDS011;13104;51.030;4.686;2023-05-24T00:37:26;11.43;;;3.97;;
25123;SDS011;13104;51.030;4.686;2023-05-24T00:39:53;13.77;;;3.97;;
25123;SDS011;13104;51.030;4.686;2023-05-24T00:42:19;16.48;;;4.20;;
25123;SDS011;13104;51.030;4.686;2023-05-24T00:44:45;19.02;;;4.45;;
25123;SDS011;13104;51.030;4.686;2023-05-24T00:47:12;18.83;;;4.70;;
25123;SDS011;13104;51.030;4.686;2023-05-24T00:49:38;15.38;;;5.00;;
25123;SDS011;13104;51.030;4.686;2023-05-24T00:52:04;14.63;;;4.13;;
25123;SDS011;13104;51.030;4.686;2023-05-24T00:54:32;16.50;;;4.20;;
25123;SDS011;13104;51.030;4.686;2023-05-24T00:56:59;19.70;;;4.47;;
25123;SDS011;13104;51.030;4.686;2023-05-24T00:59:25;17.67;;;4.65;;
25123;SDS011;13104;51.030;4.686;2023-05-24T01:01:52;16.27;;;4.50;;
25123;SDS011;13104;51.030;4.686;2023-05-24T01:04:19;22.75;;;4.82;;
25123;SDS011;13104;51.030;4.686;2023-05-24T01:06:52;19.50;;;5.13;;
25123;SDS011;13104;51.030;4.686;2023-05-24T01:17:29;16.63;;;4.57;;
25123;SDS011;13104;51.030;4.686;2023-05-24T01:19:57;21.25;;;4.82;;
25123;SDS011;13104;51.030;4.686;2023-05-24T01:25:03;20.20;;;4.20;;
25123;SDS011;13104;51.030;4.686;2023-05-24T01:27:32;14.45;;;4.20;;
25123;SDS011;13104;51.030;4.686;2023-05-24T01:29:59;13.95;;;4.78;;
25123;SDS011;13104;51.030;4.686;2023-05-24T01:32:25;10.85;;;4.50;;
25123;SDS011;13104;51.030;4.686;2023-05-24T01:34:52;13.27;;;4.40;;
25123;SDS011;13104;51.030;4.686;2023-05-24T01:37:18;11.35;;;4.15;;
25123;SDS011;13104;51.030;4.686;2023-05-24T01:39:44;21.08;;;5.22;;
25123;SDS011;13104;51.030;4.686;2023-05-24T01:44:38;16.70;;;5.22;;
25123;SDS011;13104;51.030;4.686;2023-05-24T01:49:50;18.20;;;5.03;;
25123;SDS011;13104;51.030;4.686;2023-05-24T01:52:19;13.10;;;4.82;;
25123;SDS011;13104;51.030;4.686;2023-05-24T01:54:47;20.88;;;5.28;;
25123;SDS011;13104;51.030;4.686;2023-05-24T01:57:17;17.38;;;4.85;;
25123;SDS011;13104;51.030;4.686;2023-05-24T01:59:45;15.77;;;5.03;;
25123;SDS011;13104;51.030;4.686;2023-05-24T02:02:12;15.75;;;4.85;;
25123;SDS011;13104;51.030;4.686;2023-05-24T02:04:38;13.35;;;4.80;;
25123;SDS011;13104;51.030;4.686;2023-05-24T02:07:05;23.40;;;5.55;;
25123;SDS011;13104;51.030;4.686;2023-05-24T02:09:31;17.27;;;4.50;;
25123;SDS011;13104;51.030;4.686;2023-05-24T02:11:57;22.15;;;5.60;;
25123;SDS011;13104;51.030;4.686;2023-05-24T02:14:23;13.52;;;5.47;;
25123;SDS011;13104;51.030;4.686;2023-05-24T02:16:50;17.73;;;5.05;;
25123;SDS011;13104;51.030;4.686;2023-05-24T02:19:16;22.40;;;5.10;;
25123;SDS011;13104;51.030;4.686;2023-05-24T02:21:43;14.15;;;4.55;;
25123;SDS011;13104;51.030;4.686;2023-05-24T02:24:09;19.58;;;5.47;;
25123;SDS011;13104;51.030;4.686;2023-05-24T02:26:36;15.35;;;5.53;;
25123;SDS011;13104;51.030;4.686;2023-05-24T02:29:03;21.50;;;4.95;;
25123;SDS011;13104;51.030;4.686;2023-05-24T02:31:29;16.85;;;5.78;;
25123;SDS011;13104;51.030;4.686;2023-05-24T02:33:55;18.60;;;4.97;;
25123;SDS011;13104;51.030;4.686;2023-05-24T02:36:22;22.92;;;5.85;;
25123;SDS011;13104;51.030;4.686;2023-05-24T02:38:48;17.52;;;5.13;;
25123;SDS011;13104;51.030;4.686;2023-05-24T02:41:14;18.08;;;5.10;;
25123;SDS011;13104;51.030;4.686;2023-05-24T02:43:45;22.10;;;6.15;;
25123;SDS011;13104;51.030;4.686;2023-05-24T02:46:11;10.93;;;5.10;;
25123;SDS011;13104;51.030;4.686;2023-05-24T02:48:38;13.45;;;5.20;;
25123;SDS011;13104;51.030;4.686;2023-05-24T02:51:04;16.67;;;5.20;;
25123;SDS011;13104;51.030;4.686;2023-05-24T02:53:30;14.10;;;4.47;;
25123;SDS011;13104;51.030;4.686;2023-05-24T02:55:57;15.60;;;4.70;;
25123;SDS011;13104;51.030;4.686;2023-05-24T02:58:23;15.30;;;5.35;;
25123;SDS011;13104;51.030;4.686;2023-05-24T03:00:53;12.77;;;5.03;;
25123;SDS011;13104;51.030;4.686;2023-05-24T03:03:19;13.52;;;5.75;;
25123;SDS011;13104;51.030;4.686;2023-05-24T03:05:46;15.23;;;5.10;;
25123;SDS011;13104;51.030;4.686;2023-05-24T03:08:12;13.75;;;5.57;;
25123;SDS011;13104;51.030;4.686;2023-05-24T03:10:38;14.80;;;4.90;;
25123;SDS011;13104;51.030;4.686;2023-05-24T03:13:04;14.68;;;5.45;;
25123;SDS011;13104;51.030;4.686;2023-05-24T03:15:30;16.08;;;5.38;;
25123;SDS011;13104;51.030;4.686;2023-05-24T03:17:56;14.13;;;5.32;;
25123;SDS011;13104;51.030;4.686;2023-05-24T03:20:22;20.77;;;5.38;;
25123;SDS011;13104;51.030;4.686;2023-05-24T03:22:48;14.25;;;4.88;;
25123;SDS011;13104;51.030;4.686;2023-05-24T03:25:14;14.57;;;5.32;;
25123;SDS011;13104;51.030;4.686;2023-05-24T03:27:41;16.30;;;5.75;;
25123;SDS011;13104;51.030;4.686;2023-05-24T03:30:07;12.98;;;5.75;;
25123;SDS011;13104;51.030;4.686;2023-05-24T03:32:33;18.83;;;6.22;;
25123;SDS011;13104;51.030;4.686;2023-05-24T03:34:59;13.88;;;6.30;;
25123;SDS011;13104;51.030;4.686;2023-05-24T03:37:27;9.85;;;5.78;;
25123;SDS011;13104;51.030;4.686;2023-05-24T03:39:53;14.43;;;5.95;;
25123;SDS011;13104;51.030;4.686;2023-05-24T03:42:19;9.75;;;6.57;;
25123;SDS011;13104;51.030;4.686;2023-05-24T03:44:46;18.25;;;7.32;;
25123;SDS011;13104;51.030;4.686;2023-05-24T03:47:12;20.85;;;7.47;;
25123;SDS011;13104;51.030;4.686;2023-05-24T03:49:38;17.52;;;7.45;;
25123;SDS011;13104;51.030;4.686;2023-05-24T03:52:04;16.83;;;7.65;;
25123;SDS011;13104;51.030;4.686;2023-05-24T03:54:30;17.45;;;6.90;;
25123;SDS011;13104;51.030;4.686;2023-05-24T03:56:57;14.30;;;6.75;;
25123;SDS011;13104;51.030;4.686;2023-05-24T03:59:23;16.42;;;7.68;;
25123;SDS011;13104;51.030;4.686;2023-05-24T04:01:49;12.95;;;7.53;;
25123;SDS011;13104;51.030;4.686;2023-05-24T04:04:15;15.63;;;6.72;;
25123;SDS011;13104;51.030;4.686;2023-05-24T04:06:41;14.18;;;6.70;;
25123;SDS011;13104;51.030;4.686;2023-05-24T04:09:07;14.30;;;6.72;;
25123;SDS011;13104;51.030;4.686;2023-05-24T04:11:34;15.98;;;6.05;;
25123;SDS011;13104;51.030;4.686;2023-05-24T04:14:00;14.43;;;6.63;;
25123;SDS011;13104;51.030;4.686;2023-05-24T04:16:26;14.82;;;7.00;;
25123;SDS011;13104;51.030;4.686;2023-05-24T04:18:53;15.43;;;7.32;;
25123;SDS011;13104;51.030;4.686;2023-05-24T04:21:20;14.10;;;6.80;;
25123;SDS011;13104;51.030;4.686;2023-05-24T04:23:46;14.85;;;6.75;;
25123;SDS011;13104;51.030;4.686;2023-05-24T04:26:12;17.40;;;7.22;;
25123;SDS011;13104;51.030;4.686;2023-05-24T04:28:39;15.68;;;7.35;;
25123;SDS011;13104;51.030;4.686;2023-05-24T04:31:06;16.23;;;7.50;;
25123;SDS011;13104;51.030;4.686;2023-05-24T04:33:33;19.27;;;7.78;;
25123;SDS011;13104;51.030;4.686;2023-05-24T04:36:00;12.50;;;6.82;;
25123;SDS011;13104;51.030;4.686;2023-05-24T04:38:26;15.60;;;6.95;;
25123;SDS011;13104;51.030;4.686;2023-05-24T04:41:00;17.13;;;7.87;;
25123;SDS011;13104;51.030;4.686;2023-05-24T04:43:26;17.45;;;6.97;;
25123;SDS011;13104;51.030;4.686;2023-05-24T04:45:56;15.05;;;7.22;;
25123;SDS011;13104;51.030;4.686;2023-05-24T04:48:22;20.75;;;8.23;;
25123;SDS011;13104;51.030;4.686;2023-05-24T04:50:52;15.45;;;7.68;;
25123;SDS011;13104;51.030;4.686;2023-05-24T04:53:18;14.32;;;6.80;;
25123;SDS011;13104;51.030;4.686;2023-05-24T04:55:45;15.20;;;7.50;;
25123;SDS011;13104;51.030;4.686;2023-05-24T04:58:11;18.25;;;7.55;;
25123;SDS011;13104;51.030;4.686;2023-05-24T05:00:38;15.70;;;7.53;;
25123;SDS011;13104;51.030;4.686;2023-05-24T05:03:04;13.75;;;7.95;;
25123;SDS011;13104;51.030;4.686;2023-05-24T05:05:30;14.23;;;8.63;;
25123;SDS011;13104;51.030;4.686;2023-05-24T05:07:56;21.52;;;8.90;;
25123;SDS011;13104;51.030;4.686;2023-05-24T05:10:23;16.67;;;8.15;;
25123;SDS011;13104;51.030;4.686;2023-05-24T05:12:50;22.55;;;9.32;;
25123;SDS011;13104;51.030;4.686;2023-05-24T05:15:16;13.98;;;7.70;;
25123;SDS011;13104;51.030;4.686;2023-05-24T05:17:42;17.38;;;9.07;;
25123;SDS011;13104;51.030;4.686;2023-05-24T05:20:09;15.55;;;8.05;;
25123;SDS011;13104;51.030;4.686;2023-05-24T05:22:35;23.02;;;9.70;;
25123;SDS011;13104;51.030;4.686;2023-05-24T05:25:02;19.20;;;9.15;;
25123;SDS011;13104;51.030;4.686;2023-05-24T05:27:28;19.35;;;9.07;;
25123;SDS011;13104;51.030;4.686;2023-05-24T05:29:54;26.10;;;9.35;;
25123;SDS011;13104;51.030;4.686;2023-05-24T05:32:21;20.75;;;8.70;;
25123;SDS011;13104;51.030;4.686;2023-05-24T05:34:47;20.10;;;9.13;;
25123;SDS011;13104;51.030;4.686;2023-05-24T05:37:13;17.88;;;9.63;;
25123;SDS011;13104;51.030;4.686;2023-05-24T05:39:39;26.45;;;10.43;;
25123;SDS011;13104;51.030;4.686;2023-05-24T05:42:06;24.13;;;10.32;;
25123;SDS011;13104;51.030;4.686;2023-05-24T05:44:32;16.00;;;9.73;;
25123;SDS011;13104;51.030;4.686;2023-05-24T05:46:58;20.23;;;10.32;;
25123;SDS011;13104;51.030;4.686;2023-05-24T05:49:24;26.52;;;10.70;;
25123;SDS011;13104;51.030;4.686;2023-05-24T05:51:50;20.92;;;9.43;;
25123;SDS011;13104;51.030;4.686;2023-05-24T05:54:17;22.38;;;10.32;;
25123;SDS011;13104;51.030;4.686;2023-05-24T05:56:43;22.67;;;10.15;;
25123;SDS011;13104;51.030;4.686;2023-05-24T05:59:11;21.50;;;8.88;;
25123;SDS011;13104;51.030;4.686;2023-05-24T06:01:38;23.75;;;8.43;;
25123;SDS011;13104;51.030;4.686;2023-05-24T06:04:05;25.85;;;9.20;;
25123;SDS011;13104;51.030;4.686;2023-05-24T06:06:31;24.27;;;8.25;;
25123;SDS011;13104;51.030;4.686;2023-05-24T06:08:57;22.27;;;8.20;;
25123;SDS011;13104;51.030;4.686;2023-05-24T06:11:24;25.83;;;6.85;;
25123;SDS011;13104;51.030;4.686;2023-05-24T06:13:54;27.15;;;7.93;;
25123;SDS011;13104;51.030;4.686;2023-05-24T06:16:20;28.73;;;6.95;;
25123;SDS011;13104;51.030;4.686;2023-05-24T06:18:46;25.33;;;6.72;;
25123;SDS011;13104;51.030;4.686;2023-05-24T06:21:16;25.05;;;6.15;;
25123;SDS011;13104;51.030;4.686;2023-05-24T06:23:42;27.40;;;7.13;;
25123;SDS011;13104;51.030;4.686;2023-05-24T06:26:09;22.25;;;6.55;;
25123;SDS011;13104;51.030;4.686;2023-05-24T06:28:35;30.63;;;6.82;;
25123;SDS011;13104;51.030;4.686;2023-05-24T06:31:02;25.85;;;6.40;;
25123;SDS011;13104;51.030;4.686;2023-05-24T06:33:28;25.75;;;6.20;;
25123;SDS011;13104;51.030;4.686;2023-05-24T06:35:55;27.10;;;6.43;;
25123;SDS011;13104;51.030;4.686;2023-05-24T06:38:21;21.15;;;6.63;;
25123;SDS011;13104;51.030;4.686;2023-05-24T06:40:47;30.15;;;6.65;;
25123;SDS011;13104;51.030;4.686;2023-05-24T06:43:14;25.33;;;6.20;;
25123;SDS011;13104;51.030;4.686;2023-05-24T06:45:40;24.60;;;5.78;;
25123;SDS011;13104;51.030;4.686;2023-05-24T06:48:06;26.65;;;5.90;;
25123;SDS011;13104;51.030;4.686;2023-05-24T06:50:32;26.63;;;5.65;;
25123;SDS011;13104;51.030;4.686;2023-05-24T06:53:00;30.58;;;5.35;;
25123;SDS011;13104;51.030;4.686;2023-05-24T06:55:27;23.33;;;5.70;;
25123;SDS011;13104;51.030;4.686;2023-05-24T06:57:53;25.42;;;5.22;;
25123;SDS011;13104;51.030;4.686;2023-05-24T07:00:20;20.95;;;5.32;;
25123;SDS011;13104;51.030;4.686;2023-05-24T07:02:46;25.95;;;6.22;;
25123;SDS011;13104;51.030;4.686;2023-05-24T07:05:13;28.38;;;5.38;;
25123;SDS011;13104;51.030;4.686;2023-05-24T07:07:42;16.65;;;5.22;;
25123;SDS011;13104;51.030;4.686;2023-05-24T07:10:08;20.40;;;5.03;;
25123;SDS011;13104;51.030;4.686;2023-05-24T07:12:35;20.63;;;5.78;;
25123;SDS011;13104;51.030;4.686;2023-05-24T07:15:07;22.50;;;5.20;;
25123;SDS011;13104;51.030;4.686;2023-05-24T07:17:33;20.55;;;5.18;;
25123;SDS011;13104;51.030;4.686;2023-05-24T07:20:00;19.17;;;5.28;;
25123;SDS011;13104;51.030;4.686;2023-05-24T07:22:27;20.30;;;5.10;;
25123;SDS011;13104;51.030;4.686;2023-05-24T07:24:54;22.30;;;5.55;;
25123;SDS011;13104;51.030;4.686;2023-05-24T07:27:20;24.05;;;5.65;;
25123;SDS011;13104;51.030;4.686;2023-05-24T07:29:46;25.45;;;5.25;;
25123;SDS011;13104;51.030;4.686;2023-05-24T07:32:14;18.73;;;4.25;;
25123;SDS011;13104;51.030;4.686;2023-05-24T07:34:40;21.05;;;4.88;;
25123;SDS011;13104;51.030;4.686;2023-05-24T07:37:07;22.15;;;4.82;;
25123;SDS011;13104;51.030;4.686;2023-05-24T07:39:33;18.05;;;4.30;;
25123;SDS011;13104;51.030;4.686;2023-05-24T07:42:00;22.25;;;4.50;;
25123;SDS011;13104;51.030;4.686;2023-05-24T07:44:26;19.67;;;4.03;;
25123;SDS011;13104;51.030;4.686;2023-05-24T07:46:53;23.45;;;5.22;;
25123;SDS011;13104;51.030;4.686;2023-05-24T07:49:19;19.10;;;4.80;;
25123;SDS011;13104;51.030;4.686;2023-05-24T07:51:46;25.05;;;5.45;;
25123;SDS011;13104;51.030;4.686;2023-05-24T07:54:13;19.90;;;4.90;;
25123;SDS011;13104;51.030;4.686;2023-05-24T07:56:42;21.08;;;4.90;;
25123;SDS011;13104;51.030;4.686;2023-05-24T07:59:08;27.80;;;4.55;;
25123;SDS011;13104;51.030;4.686;2023-05-24T08:01:35;22.13;;;4.50;;
25123;SDS011;13104;51.030;4.686;2023-05-24T08:04:02;27.38;;;4.88;;
25123;SDS011;13104;51.030;4.686;2023-05-24T08:06:28;24.65;;;4.47;;
25123;SDS011;13104;51.030;4.686;2023-05-24T08:08:56;20.13;;;4.43;;
25123;SDS011;13104;51.030;4.686;2023-05-24T08:11:22;22.15;;;4.68;;
25123;SDS011;13104;51.030;4.686;2023-05-24T08:13:48;19.98;;;5.07;;
25123;SDS011;13104;51.030;4.686;2023-05-24T08:16:14;20.92;;;4.25;;
25123;SDS011;13104;51.030;4.686;2023-05-24T08:18:40;24.17;;;4.75;;
25123;SDS011;13104;51.030;4.686;2023-05-24T08:21:07;24.23;;;5.00;;
25123;SDS011;13104;51.030;4.686;2023-05-24T08:23:33;14.50;;;4.20;;
25123;SDS011;13104;51.030;4.686;2023-05-24T08:26:00;17.90;;;4.57;;
25123;SDS011;13104;51.030;4.686;2023-05-24T08:28:28;22.25;;;4.50;;
25123;SDS011;13104;51.030;4.686;2023-05-24T08:30:54;18.20;;;4.13;;
25123;SDS011;13104;51.030;4.686;2023-05-24T08:33:21;13.65;;;3.75;;
25123;SDS011;13104;51.030;4.686;2023-05-24T08:35:50;15.75;;;3.78;;
25123;SDS011;13104;51.030;4.686;2023-05-24T08:38:16;22.60;;;4.85;;
25123;SDS011;13104;51.030;4.686;2023-05-24T08:40:42;19.30;;;4.45;;
25123;SDS011;13104;51.030;4.686;2023-05-24T08:43:09;17.98;;;5.32;;
25123;SDS011;13104;51.030;4.686;2023-05-24T08:45:37;21.63;;;4.45;;
25123;SDS011;13104;51.030;4.686;2023-05-24T08:48:07;17.08;;;4.50;;
25123;SDS011;13104;51.030;4.686;2023-05-24T08:50:34;20.90;;;4.95;;
25123;SDS011;13104;51.030;4.686;2023-05-24T08:53:00;17.70;;;4.10;;
25123;SDS011;13104;51.030;4.686;2023-05-24T08:55:28;16.25;;;4.60;;
25123;SDS011;13104;51.030;4.686;2023-05-24T08:57:55;13.30;;;4.55;;
25123;SDS011;13104;51.030;4.686;2023-05-24T09:00:21;17.48;;;4.60;;
25123;SDS011;13104;51.030;4.686;2023-05-24T09:02:48;16.95;;;5.05;;
25123;SDS011;13104;51.030;4.686;2023-05-24T09:05:14;19.63;;;4.50;;
25123;SDS011;13104;51.030;4.686;2023-05-24T09:07:44;15.25;;;5.25;;
25123;SDS011;13104;51.030;4.686;2023-05-24T09:10:11;26.27;;;5.13;;
25123;SDS011;13104;51.030;4.686;2023-05-24T09:12:38;14.77;;;4.75;;
25123;SDS011;13104;51.030;4.686;2023-05-24T09:15:06;17.20;;;5.28;;
25123;SDS011;13104;51.030;4.686;2023-05-24T09:17:34;16.35;;;4.90;;
25123;SDS011;13104;51.030;4.686;2023-05-24T09:20:00;17.13;;;5.93;;
25123;SDS011;13104;51.030;4.686;2023-05-24T09:22:30;14.15;;;5.90;;
25123;SDS011;13104;51.030;4.686;2023-05-24T09:25:00;17.92;;;5.60;;
25123;SDS011;13104;51.030;4.686;2023-05-24T09:27:27;21.92;;;6.13;;
25123;SDS011;13104;51.030;4.686;2023-05-24T09:29:54;20.25;;;6.18;;
25123;SDS011;13104;51.030;4.686;2023-05-24T09:32:21;19.40;;;6.00;;
25123;SDS011;13104;51.030;4.686;2023-05-24T09:34:49;19.52;;;5.93;;
25123;SDS011;13104;51.030;4.686;2023-05-24T09:37:16;21.88;;;6.85;;
25123;SDS011;13104;51.030;4.686;2023-05-24T09:39:43;18.60;;;6.78;;
25123;SDS011;13104;51.030;4.686;2023-05-24T09:42:18;17.15;;;6.68;;
25123;SDS011;13104;51.030;4.686;2023-05-24T09:47:44;17.17;;;6.20;;
25123;SDS011;13104;51.030;4.686;2023-05-24T09:50:13;22.00;;;6.53;;
25123;SDS011;13104;51.030;4.686;2023-05-24T09:52:41;19.58;;;6.03;;
25123;SDS011;13104;51.030;4.686;2023-05-24T09:57:36;18.30;;;6.18;;
25123;SDS011;13104;51.030;4.686;2023-05-24T10:00:06;24.42;;;6.45;;
25123;SDS011;13104;51.030;4.686;2023-05-24T10:02:44;23.63;;;6.55;;
25123;SDS011;13104;51.030;4.686;2023-05-24T10:05:11;22.35;;;6.55;;
25123;SDS011;13104;51.030;4.686;2023-05-24T10:07:38;24.40;;;6.22;;
25123;SDS011;13104;51.030;4.686;2023-05-24T10:10:04;15.50;;;7.00;;
25123;SDS011;13104;51.030;4.686;2023-05-24T10:12:32;16.70;;;6.63;;
25123;SDS011;13104;51.030;4.686;2023-05-24T10:14:59;17.45;;;6.38;;
25123;SDS011;13104;51.030;4.686;2023-05-24T10:17:25;21.95;;;7.50;;
25123;SDS011;13104;51.030;4.686;2023-05-24T10:19:52;21.15;;;7.13;;
25123;SDS011;13104;51.030;4.686;2023-05-24T10:22:19;24.27;;;7.68;;
25123;SDS011;13104;51.030;4.686;2023-05-24T10:24:49;18.52;;;7.93;;
25123;SDS011;13104;51.030;4.686;2023-05-24T10:27:23;19.38;;;8.32;;
25123;SDS011;13104;51.030;4.686;2023-05-24T10:32:19;15.60;;;7.60;;
25123;SDS011;13104;51.030;4.686;2023-05-24T10:34:45;21.13;;;7.50;;
25123;SDS011;13104;51.030;4.686;2023-05-24T10:37:13;22.45;;;8.02;;
25123;SDS011;13104;51.030;4.686;2023-05-24T10:39:40;17.45;;;6.82;;
25123;SDS011;13104;51.030;4.686;2023-05-24T10:42:06;19.40;;;7.60;;
25123;SDS011;13104;51.030;4.686;2023-05-24T10:44:32;23.17;;;7.07;;
25123;SDS011;13104;51.030;4.686;2023-05-24T10:47:11;23.05;;;7.53;;
25123;SDS011;13104;51.030;4.686;2023-05-24T10:52:15;19.52;;;7.15;;
25123;SDS011;13104;51.030;4.686;2023-05-24T10:54:59;19.13;;;7.43;;
25123;SDS011;13104;51.030;4.686;2023-05-24T10:57:28;19.15;;;7.00;;
25123;SDS011;13104;51.030;4.686;2023-05-24T10:59:56;21.30;;;8.07;;
25123;SDS011;13104;51.030;4.686;2023-05-24T11:02:23;17.77;;;8.73;;
25123;SDS011;13104;51.030;4.686;2023-05-24T11:04:52;17.98;;;7.85;;
25123;SDS011;13104;51.030;4.686;2023-05-24T11:07:20;15.25;;;6.90;;
25123;SDS011;13104;51.030;4.686;2023-05-24T11:09:46;19.38;;;7.40;;
25123;SDS011;13104;51.030;4.686;2023-05-24T11:12:21;23.10;;;7.07;;
25123;SDS011;13104;51.030;4.686;2023-05-24T11:14:48;17.13;;;7.70;;
25123;SDS011;13104;51.030;4.686;2023-05-24T11:17:15;19.33;;;7.20;;
25123;SDS011;13104;51.030;4.686;2023-05-24T11:19:45;19.95;;;8.00;;
25123;SDS011;13104;51.030;4.686;2023-05-24T11:22:12;18.15;;;7.70;;
25123;SDS011;13104;51.030;4.686;2023-05-24T11:24:39;21.85;;;7.63;;
25123;SDS011;13104;51.030;4.686;2023-05-24T11:27:05;18.10;;;7.07;;
25123;SDS011;13104;51.030;4.686;2023-05-24T11:29:32;18.60;;;6.82;;
25123;SDS011;13104;51.030;4.686;2023-05-24T11:32:04;15.18;;;6.32;;
25123;SDS011;13104;51.030;4.686;2023-05-24T11:34:32;15.70;;;6.22;;
25123;SDS011;13104;51.030;4.686;2023-05-24T11:36:58;18.13;;;6.72;;
25123;SDS011;13104;51.030;4.686;2023-05-24T11:39:29;18.17;;;6.47;;
25123;SDS011;13104;51.030;4.686;2023-05-24T11:41:56;16.02;;;5.65;;
25123;SDS011;13104;51.030;4.686;2023-05-24T11:44:22;14.55;;;5.93;;
25123;SDS011;13104;51.030;4.686;2023-05-24T11:46:55;15.95;;;6.22;;
25123;SDS011;13104;51.030;4.686;2023-05-24T11:49:21;13.57;;;5.85;;
25123;SDS011;13104;51.030;4.686;2023-05-24T11:51:47;24.13;;;6.68;;
25123;SDS011;13104;51.030;4.686;2023-05-24T11:54:13;16.70;;;6.03;;
25123;SDS011;13104;51.030;4.686;2023-05-24T11:56:40;19.95;;;6.38;;
25123;SDS011;13104;51.030;4.686;2023-05-24T12:01:36;19.42;;;5.68;;
25123;SDS011;13104;51.030;4.686;2023-05-24T12:04:03;15.68;;;6.07;;
25123;SDS011;13104;51.030;4.686;2023-05-24T12:06:34;15.95;;;5.93;;
25123;SDS011;13104;51.030;4.686;2023-05-24T12:09:01;18.48;;;5.93;;
25123;SDS011;13104;51.030;4.686;2023-05-24T12:11:29;15.63;;;6.00;;
25123;SDS011;13104;51.030;4.686;2023-05-24T12:13:57;15.95;;;5.53;;
25123;SDS011;13104;51.030;4.686;2023-05-24T12:16:23;17.40;;;5.80;;
25123;SDS011;13104;51.030;4.686;2023-05-24T12:18:50;17.15;;;5.65;;
25123;SDS011;13104;51.030;4.686;2023-05-24T12:21:17;17.85;;;5.30;;
25123;SDS011;13104;51.030;4.686;2023-05-24T12:23:46;15.77;;;5.65;;
25123;SDS011;13104;51.030;4.686;2023-05-24T12:26:12;12.07;;;4.75;;
25123;SDS011;13104;51.030;4.686;2023-05-24T12:28:38;21.65;;;6.03;;
25123;SDS011;13104;51.030;4.686;2023-05-24T12:31:06;12.68;;;5.70;;
25123;SDS011;13104;51.030;4.686;2023-05-24T12:33:32;17.50;;;5.50;;
25123;SDS011;13104;51.030;4.686;2023-05-24T12:35:59;20.65;;;6.50;;
25123;SDS011;13104;51.030;4.686;2023-05-24T12:38:26;12.13;;;4.82;;
25123;SDS011;13104;51.030;4.686;2023-05-24T12:40:52;16.10;;;5.50;;
25123;SDS011;13104;51.030;4.686;2023-05-24T12:43:19;15.75;;;5.53;;
25123;SDS011;13104;51.030;4.686;2023-05-24T12:45:45;15.07;;;5.18;;
25123;SDS011;13104;51.030;4.686;2023-05-24T12:48:12;14.50;;;5.03;;
25123;SDS011;13104;51.030;4.686;2023-05-24T12:50:38;17.00;;;5.22;;
25123;SDS011;13104;51.030;4.686;2023-05-24T12:53:04;18.27;;;5.07;;
25123;SDS011;13104;51.030;4.686;2023-05-24T12:55:45;16.25;;;5.03;;
25123;SDS011;13104;51.030;4.686;2023-05-24T12:58:11;17.98;;;5.50;;
25123;SDS011;13104;51.030;4.686;2023-05-24T13:00:40;15.43;;;5.07;;
25123;SDS011;13104;51.030;4.686;2023-05-24T13:03:08;19.75;;;5.32;;
25123;SDS011;13104;51.030;4.686;2023-05-24T13:05:34;16.73;;;5.15;;
25123;SDS011;13104;51.030;4.686;2023-05-24T13:08:00;15.02;;;5.32;;
25123;SDS011;13104;51.030;4.686;2023-05-24T13:10:27;14.43;;;5.22;;
25123;SDS011;13104;51.030;4.686;2023-05-24T13:12:54;20.55;;;5.05;;
25123;SDS011;13104;51.030;4.686;2023-05-24T13:15:21;13.05;;;5.00;;
25123;SDS011;13104;51.030;4.686;2023-05-24T13:17:48;19.30;;;5.32;;
25123;SDS011;13104;51.030;4.686;2023-05-24T13:20:14;15.88;;;5.07;;
25123;SDS011;13104;51.030;4.686;2023-05-24T13:22:42;17.08;;;5.13;;
25123;SDS011;13104;51.030;4.686;2023-05-24T13:25:08;13.80;;;5.00;;
25123;SDS011;13104;51.030;4.686;2023-05-24T13:27:36;17.20;;;4.95;;
25123;SDS011;13104;51.030;4.686;2023-05-24T13:30:02;16.95;;;4.75;;
25123;SDS011;13104;51.030;4.686;2023-05-24T13:32:30;18.52;;;4.75;;
25123;SDS011;13104;51.030;4.686;2023-05-24T13:34:56;20.92;;;5.05;;
25123;SDS011;13104;51.030;4.686;2023-05-24T13:37:23;16.30;;;4.68;;
25123;SDS011;13104;51.030;4.686;2023-05-24T13:39:50;17.98;;;4.72;;
25123;SDS011;13104;51.030;4.686;2023-05-24T13:42:16;16.15;;;5.40;;
25123;SDS011;13104;51.030;4.686;2023-05-24T13:44:42;13.88;;;4.60;;
25123;SDS011;13104;51.030;4.686;2023-05-24T13:47:08;18.73;;;4.45;;
25123;SDS011;13104;51.030;4.686;2023-05-24T13:49:34;15.02;;;4.65;;
25123;SDS011;13104;51.030;4.686;2023-05-24T13:52:01;17.60;;;5.13;;
25123;SDS011;13104;51.030;4.686;2023-05-24T13:54:27;21.77;;;4.85;;
25123;SDS011;13104;51.030;4.686;2023-05-24T13:56:54;19.65;;;5.32;;
25123;SDS011;13104;51.030;4.686;2023-05-24T13:59:21;17.35;;;6.00;;
25123;SDS011;13104;51.030;4.686;2023-05-24T14:01:47;18.15;;;5.55;;
25123;SDS011;13104;51.030;4.686;2023-05-24T14:04:13;18.23;;;4.95;;
25123;SDS011;13104;51.030;4.686;2023-05-24T14:06:40;14.50;;;4.82;;
25123;SDS011;13104;51.030;4.686;2023-05-24T14:09:07;16.25;;;5.18;;
25123;SDS011;13104;51.030;4.686;2023-05-24T14:11:33;22.15;;;7.90;;
25123;SDS011;13104;51.030;4.686;2023-05-24T14:14:00;17.75;;;6.35;;
25123;SDS011;13104;51.030;4.686;2023-05-24T14:16:26;16.13;;;5.22;;
25123;SDS011;13104;51.030;4.686;2023-05-24T14:18:53;17.77;;;5.22;;
25123;SDS011;13104;51.030;4.686;2023-05-24T14:21:20;17.65;;;5.03;;
25123;SDS011;13104;51.030;4.686;2023-05-24T14:23:47;14.20;;;5.15;;
25123;SDS011;13104;51.030;4.686;2023-05-24T14:26:13;20.70;;;5.65;;
25123;SDS011;13104;51.030;4.686;2023-05-24T14:28:39;18.50;;;5.07;;
25123;SDS011;13104;51.030;4.686;2023-05-24T14:31:05;16.10;;;4.53;;
25123;SDS011;13104;51.030;4.686;2023-05-24T14:33:32;18.15;;;4.85;;
25123;SDS011;13104;51.030;4.686;2023-05-24T14:35:58;20.30;;;5.63;;
25123;SDS011;13104;51.030;4.686;2023-05-24T14:38:24;14.93;;;5.13;;
25123;SDS011;13104;51.030;4.686;2023-05-24T14:40:50;16.02;;;4.45;;
25123;SDS011;13104;51.030;4.686;2023-05-24T14:43:16;17.40;;;4.53;;
25123;SDS011;13104;51.030;4.686;2023-05-24T14:45:42;19.23;;;5.75;;
25123;SDS011;13104;51.030;4.686;2023-05-24T14:48:09;24.23;;;5.28;;
25123;SDS011;13104;51.030;4.686;2023-05-24T14:50:36;24.52;;;5.32;;
25123;SDS011;13104;51.030;4.686;2023-05-24T14:53:02;18.33;;;5.07;;
25123;SDS011;13104;51.030;4.686;2023-05-24T14:55:38;17.70;;;4.95;;
25123;SDS011;13104;51.030;4.686;2023-05-24T14:58:05;17.20;;;4.88;;
25123;SDS011;13104;51.030;4.686;2023-05-24T15:00:38;29.00;;;13.45;;